createdAt,value
2019-05-16T00:02:28.470Z,14.40
2019-05-16T00:04:59.158Z,14.40
2019-05-16T00:07:28.499Z,14.30
2019-05-16T00:09:59.040Z,14.40
2019-05-16T00:12:29.151Z,14.40
2019-05-16T00:14:58.268Z,14.40
2019-05-16T00:17:28.462Z,14.40
2019-05-16T00:19:58.949Z,14.40
2019-05-16T00:22:28.762Z,14.40
2019-05-16T00:24:58.099Z,14.40
2019-05-16T00:27:28.073Z,14.40
2019-05-16T00:29:58.447Z,14.40
2019-05-16T00:32:28.159Z,14.40
2019-05-16T00:34:58.330Z,14.40
2019-05-16T00:37:28.658Z,14.40
2019-05-16T00:39:58.768Z,14.40
2019-05-16T00:42:28.683Z,14.40
2019-05-16T00:45:00.940Z,14.30
2019-05-16T00:47:30.692Z,14.40
2019-05-16T00:49:59.652Z,14.30
2019-05-16T00:52:28.932Z,14.30
2019-05-16T00:54:58.125Z,14.30
2019-05-16T00:57:28.194Z,14.30
2019-05-16T00:59:59.177Z,14.30
2019-05-16T01:02:29.178Z,14.30
2019-05-16T01:04:59.044Z,14.20
2019-05-16T01:07:28.538Z,14.10
2019-05-16T01:09:58.321Z,14.10
2019-05-16T01:12:28.341Z,14.10
2019-05-16T01:14:58.442Z,14.00
2019-05-16T01:17:28.346Z,14.00
2019-05-16T01:19:57.925Z,14.10
2019-05-16T01:22:29.013Z,14.10
2019-05-16T01:24:58.479Z,14.10
2019-05-16T01:27:28.530Z,14.10
2019-05-16T01:29:58.411Z,14.10
2019-05-16T01:32:31.873Z,14.10
2019-05-16T01:34:58.928Z,14.10
2019-05-16T01:37:28.431Z,14.10
2019-05-16T01:39:58.717Z,14.00
2019-05-16T01:42:28.698Z,14.10
2019-05-16T01:44:57.922Z,14.10
2019-05-16T01:47:28.779Z,14.00
2019-05-16T01:49:58.121Z,14.00
2019-05-16T01:52:29.064Z,14.00
2019-05-16T01:54:58.807Z,14.00
2019-05-16T01:57:28.303Z,13.90
2019-05-16T01:59:58.935Z,13.80
2019-05-16T02:02:28.938Z,13.90
2019-05-16T02:04:59.056Z,13.90
2019-05-16T02:07:28.469Z,13.90
2019-05-16T02:09:58.283Z,13.90
2019-05-16T02:12:27.797Z,13.90
2019-05-16T02:14:58.716Z,13.90
2019-05-16T02:17:29.708Z,13.90
2019-05-16T02:19:58.930Z,14.00
2019-05-16T02:22:28.567Z,13.90
2019-05-16T02:24:58.473Z,13.90
2019-05-16T02:27:28.724Z,13.90
2019-05-16T02:29:59.886Z,14.00
2019-05-16T02:32:31.311Z,14.00
2019-05-16T02:35:01.175Z,14.00
2019-05-16T02:37:34.452Z,14.00
2019-05-16T02:40:01.681Z,14.00
2019-05-16T02:42:31.366Z,14.00
2019-05-16T02:45:02.382Z,14.00
2019-05-16T02:47:34.855Z,14.00
2019-05-16T02:50:02.209Z,14.10
2019-05-16T02:52:31.791Z,14.10
2019-05-16T02:55:01.391Z,14.10
2019-05-16T02:57:31.553Z,14.10
2019-05-16T03:00:02.016Z,14.00
2019-05-16T03:02:31.396Z,13.90
2019-05-16T03:05:01.120Z,13.80
2019-05-16T03:07:41.053Z,13.90
2019-05-16T03:10:02.189Z,13.90
2019-05-16T03:12:32.923Z,13.90
2019-05-16T03:15:02.979Z,14.00
2019-05-16T03:17:35.753Z,14.00
2019-05-16T03:20:06.300Z,14.00
2019-05-16T03:22:36.875Z,14.00
2019-05-16T03:25:06.343Z,14.00
2019-05-16T03:27:35.267Z,14.00
2019-05-16T03:30:04.567Z,14.00
2019-05-16T03:32:34.606Z,14.10
2019-05-16T03:35:06.078Z,14.10
2019-05-16T03:37:50.248Z,14.10
2019-05-16T03:40:06.868Z,14.00
2019-05-16T03:42:35.761Z,14.00
2019-05-16T03:45:04.865Z,14.10
2019-05-16T03:47:34.701Z,14.10
2019-05-16T03:50:03.792Z,14.20
2019-05-16T03:52:32.615Z,14.20
2019-05-16T03:55:02.050Z,14.20
2019-05-16T03:57:31.155Z,14.20
2019-05-16T04:00:00.789Z,14.20
2019-05-16T04:02:31.026Z,14.10
2019-05-16T04:05:02.031Z,14.10
2019-05-16T04:07:31.959Z,14.00
2019-05-16T04:10:02.234Z,14.10
2019-05-16T04:12:31.484Z,14.10
2019-05-16T04:15:01.872Z,14.10
2019-05-16T04:17:31.913Z,14.10
2019-05-16T04:20:02.375Z,14.10
2019-05-16T04:22:31.985Z,14.00
2019-05-16T04:25:01.992Z,14.00
2019-05-16T04:27:31.600Z,14.10
2019-05-16T04:30:01.985Z,14.10
2019-05-16T04:32:31.767Z,14.20
2019-05-16T04:35:02.642Z,14.30
2019-05-16T04:37:32.459Z,14.30
2019-05-16T04:40:01.825Z,14.40
2019-05-16T04:42:31.362Z,14.40
2019-05-16T04:47:51.067Z,14.50
2019-05-16T04:50:21.061Z,14.60
2019-05-16T04:52:51.778Z,14.70
2019-05-16T04:55:21.404Z,14.70
2019-05-16T04:57:51.292Z,14.80
2019-05-16T05:00:21.429Z,14.80
2019-05-16T05:02:51.890Z,14.90
2019-05-16T05:05:21.721Z,14.90
2019-05-16T05:07:51.199Z,15.00
2019-05-16T05:10:20.911Z,15.10
2019-05-16T05:12:51.534Z,15.20
2019-05-16T05:15:21.436Z,15.20
2019-05-16T05:17:50.693Z,15.30
2019-05-16T05:20:20.983Z,15.40
2019-05-16T05:22:51.093Z,15.40
2019-05-16T05:25:20.568Z,15.40
2019-05-16T05:27:50.093Z,15.40
2019-05-16T05:30:19.902Z,15.50
2019-05-16T05:32:50.216Z,15.50
2019-05-16T05:35:20.843Z,15.70
2019-05-16T05:37:50.817Z,15.80
2019-05-16T05:40:20.251Z,15.90
2019-05-16T05:42:50.452Z,16.00
2019-05-16T05:45:20.243Z,16.00
2019-05-16T05:47:50.594Z,15.80
2019-05-16T05:50:20.291Z,15.70
2019-05-16T05:52:51.101Z,15.60
2019-05-16T05:55:20.360Z,15.40
2019-05-16T05:57:50.620Z,15.40
2019-05-16T06:00:21.138Z,15.40
2019-05-16T06:02:50.879Z,15.60
2019-05-16T06:05:20.384Z,15.70
2019-05-16T06:07:50.994Z,15.80
2019-05-16T06:10:20.191Z,15.90
2019-05-16T06:12:50.180Z,15.90
2019-05-16T06:15:20.288Z,16.10
2019-05-16T06:17:50.943Z,16.20
2019-05-16T06:20:21.035Z,16.10
2019-05-16T06:22:50.899Z,15.90
2019-05-16T06:25:22.847Z,15.60
2019-05-16T06:27:51.268Z,15.50
2019-05-16T06:30:21.290Z,15.50
2019-05-16T06:32:50.611Z,15.50
2019-05-16T06:35:21.293Z,15.50
2019-05-16T06:37:50.786Z,15.50
2019-05-16T06:40:20.270Z,15.60
2019-05-16T06:42:51.017Z,15.60
2019-05-16T06:45:20.640Z,15.60
2019-05-16T06:47:50.380Z,15.60
2019-05-16T06:50:20.796Z,15.60
2019-05-16T06:52:50.539Z,15.50
2019-05-16T06:55:20.469Z,15.50
2019-05-16T06:57:50.299Z,15.50
2019-05-16T07:00:20.955Z,15.50
2019-05-16T07:02:50.719Z,15.50
2019-05-16T07:05:20.796Z,15.50
2019-05-16T07:07:50.939Z,15.50
2019-05-16T07:10:20.562Z,15.40
2019-05-16T07:12:50.449Z,15.40
2019-05-16T07:15:20.651Z,15.60
2019-05-16T07:17:51.170Z,15.80
2019-05-16T07:20:20.964Z,16.40
2019-05-16T07:22:50.562Z,16.90
2019-05-16T07:25:20.794Z,16.90
2019-05-16T07:27:51.178Z,17.10
2019-05-16T07:30:20.668Z,17.40
2019-05-16T07:32:50.131Z,17.40
2019-05-16T07:35:20.514Z,17.10
2019-05-16T07:37:50.113Z,17.30
2019-05-16T07:40:26.256Z,17.30
2019-05-16T07:42:51.036Z,17.30
2019-05-16T07:45:20.543Z,17.30
2019-05-16T07:47:50.980Z,17.30
2019-05-16T07:50:20.457Z,17.20
2019-05-16T07:52:51.149Z,17.20
2019-05-16T07:55:21.088Z,18.90
2019-05-16T07:57:50.656Z,18.10
2019-05-16T08:00:21.646Z,18.60
2019-05-16T08:02:51.333Z,18.80
2019-05-16T08:05:21.306Z,18.70
2019-05-16T08:07:51.362Z,18.60
2019-05-16T08:10:36.997Z,18.10
2019-05-16T08:12:51.983Z,18.00
2019-05-16T08:15:21.528Z,17.60
2019-05-16T08:17:51.386Z,17.70
2019-05-16T08:20:21.292Z,17.70
2019-05-16T08:22:51.219Z,17.60
2019-05-16T08:25:20.582Z,17.70
2019-05-16T08:27:52.010Z,17.70
2019-05-16T08:30:21.271Z,18.00
2019-05-16T08:32:52.906Z,18.00
2019-05-16T08:35:21.725Z,18.20
2019-05-16T08:37:51.634Z,18.70
2019-05-16T08:40:21.669Z,19.10
2019-05-16T08:42:51.873Z,19.40
2019-05-16T08:45:22.330Z,19.20
2019-05-16T08:47:52.546Z,19.00
2019-05-16T08:50:22.383Z,18.60
2019-05-16T08:52:52.711Z,18.10
2019-05-16T08:55:22.296Z,17.60
2019-05-16T08:57:54.301Z,17.60
2019-05-16T09:00:23.770Z,17.60
2019-05-16T09:02:52.863Z,17.40
2019-05-16T09:05:22.843Z,17.00
2019-05-16T09:08:00.441Z,16.80
2019-05-16T09:12:53.414Z,16.50
2019-05-16T09:15:22.647Z,16.30
2019-05-16T09:17:51.614Z,16.20
2019-05-16T09:20:20.943Z,15.90
2019-05-16T09:22:49.952Z,16.10
2019-05-16T09:25:19.246Z,16.20
2019-05-16T09:27:48.805Z,16.50
2019-05-16T09:30:17.859Z,16.90
2019-05-16T09:32:47.999Z,17.10
2019-05-16T09:35:17.678Z,17.10
2019-05-16T09:37:47.309Z,17.20
2019-05-16T09:40:18.319Z,17.40
2019-05-16T09:42:47.694Z,17.60
2019-05-16T09:45:17.304Z,17.60
2019-05-16T09:47:48.425Z,17.50
2019-05-16T09:50:17.684Z,17.60
2019-05-16T09:52:47.332Z,17.80
2019-05-16T09:55:17.580Z,18.00
2019-05-16T09:57:47.043Z,18.10
2019-05-16T10:00:19.423Z,18.10
2019-05-16T10:02:48.595Z,18.00
2019-05-16T10:05:19.132Z,18.10
2019-05-16T10:07:48.137Z,18.30
2019-05-16T10:10:17.348Z,18.30
2019-05-16T10:12:49.430Z,18.30
2019-05-16T10:15:18.898Z,18.50
2019-05-16T10:17:47.936Z,18.60
2019-05-16T10:20:17.880Z,18.80
2019-05-16T10:22:50.517Z,19.10
2019-05-16T10:25:19.584Z,19.30
2019-05-16T10:27:48.903Z,19.80
2019-05-16T10:30:19.847Z,20.20
2019-05-16T10:32:48.782Z,20.40
2019-05-16T10:35:18.451Z,20.20
2019-05-16T10:37:47.441Z,20.30
2019-05-16T10:40:18.563Z,20.50
2019-05-16T10:42:47.544Z,20.10
2019-05-16T10:45:16.835Z,20.20
2019-05-16T10:47:48.096Z,20.10
2019-05-16T10:50:16.965Z,20.00
2019-05-16T10:52:48.941Z,20.00
2019-05-16T10:55:17.815Z,19.80
2019-05-16T10:57:47.773Z,19.80
2019-05-16T11:00:42.422Z,19.40
2019-05-16T11:02:50.410Z,19.40
2019-05-16T11:05:30.108Z,19.30
2019-05-16T11:07:53.169Z,19.40
2019-05-16T11:10:21.987Z,19.20
2019-05-16T11:12:55.177Z,19.10
2019-05-16T11:15:21.867Z,19.00
2019-05-16T11:17:50.823Z,19.00
2019-05-16T11:20:21.238Z,18.90
2019-05-16T11:22:50.456Z,18.90
2019-05-16T11:25:28.357Z,19.20
2019-05-16T11:27:50.282Z,19.40
2019-05-16T11:30:19.663Z,19.40
2019-05-16T11:32:48.996Z,19.10
2019-05-16T11:35:18.024Z,19.30
2019-05-16T11:37:47.423Z,19.40
2019-05-16T11:40:17.986Z,19.50
2019-05-16T11:42:56.939Z,19.60
2019-05-16T11:45:18.321Z,19.70
2019-05-16T11:47:47.387Z,19.60
2019-05-16T11:50:17.677Z,19.70
2019-05-16T11:52:47.677Z,19.60
2019-05-16T11:55:17.016Z,19.20
2019-05-16T11:57:47.651Z,19.40
2019-05-16T12:00:18.180Z,19.70
2019-05-16T12:02:47.929Z,20.00
2019-05-16T12:05:17.570Z,20.40
2019-05-16T12:07:48.268Z,20.20
2019-05-16T12:10:18.017Z,19.90
2019-05-16T12:12:47.204Z,20.00
2019-05-16T12:15:19.988Z,20.20
2019-05-16T12:18:00.269Z,20.20
2019-05-16T12:20:18.211Z,20.20
2019-05-16T12:22:47.268Z,20.20
2019-05-16T12:25:16.887Z,20.30
2019-05-16T12:27:48.050Z,20.40
2019-05-16T12:30:17.786Z,20.30
2019-05-16T12:32:47.159Z,19.90
2019-05-16T12:35:17.660Z,20.10
2019-05-16T12:37:48.036Z,20.20
2019-05-16T12:40:17.364Z,20.10
2019-05-16T12:42:47.165Z,20.00
2019-05-16T12:45:16.593Z,19.80
2019-05-16T12:47:47.249Z,19.70
2019-05-16T12:50:17.768Z,19.80
2019-05-16T12:52:47.474Z,20.20
2019-05-16T12:55:17.213Z,20.70
2019-05-16T12:57:48.966Z,21.00
2019-05-16T13:00:18.955Z,21.20
2019-05-16T13:02:48.482Z,21.40
2019-05-16T13:05:18.031Z,21.50
2019-05-16T13:07:47.763Z,21.50
2019-05-16T13:10:17.471Z,21.50
2019-05-16T13:12:46.473Z,21.40
2019-05-16T13:15:18.080Z,21.20
2019-05-16T13:17:47.440Z,21.20
2019-05-16T13:20:17.960Z,21.40
2019-05-16T13:22:47.456Z,21.50
2019-05-16T13:25:18.312Z,21.50
2019-05-16T13:27:47.777Z,21.30
2019-05-16T13:30:18.642Z,21.00
2019-05-16T13:32:48.125Z,20.70
2019-05-16T13:35:17.322Z,20.40
2019-05-16T13:37:47.675Z,20.30
2019-05-16T13:40:17.837Z,20.20
2019-05-16T13:42:48.075Z,20.20
2019-05-16T13:45:18.032Z,20.50
2019-05-16T13:47:48.625Z,20.50
2019-05-16T13:50:18.395Z,20.60
2019-05-16T13:52:48.079Z,20.70
2019-05-16T13:55:18.698Z,20.70
2019-05-16T13:57:47.741Z,20.80
2019-05-16T14:00:17.486Z,21.40
2019-05-16T14:02:46.670Z,21.80
2019-05-16T14:05:17.995Z,21.70
2019-05-16T14:07:47.975Z,21.60
2019-05-16T14:10:18.325Z,21.50
2019-05-16T14:12:50.097Z,21.70
2019-05-16T14:15:18.718Z,21.70
2019-05-16T14:17:48.940Z,21.40
2019-05-16T14:20:18.585Z,21.20
2019-05-16T14:22:47.875Z,21.10
2019-05-16T14:25:16.888Z,20.90
2019-05-16T14:27:47.520Z,20.80
2019-05-16T14:30:18.082Z,20.90
2019-05-16T14:32:50.816Z,20.60
2019-05-16T14:35:18.118Z,20.40
2019-05-16T14:37:47.064Z,20.60
2019-05-16T14:40:17.630Z,20.40
2019-05-16T14:42:47.952Z,20.20
2019-05-16T14:45:19.676Z,20.10
2019-05-16T14:47:49.345Z,20.00
2019-05-16T14:50:19.090Z,19.60
2019-05-16T14:52:48.082Z,19.70
2019-05-16T14:55:18.789Z,19.60
2019-05-16T14:57:47.921Z,19.60
2019-05-16T15:00:18.713Z,19.70
2019-05-16T15:02:48.426Z,19.60
2019-05-16T15:05:18.614Z,19.20
2019-05-16T15:07:51.315Z,19.10
2019-05-16T15:10:20.469Z,18.90
2019-05-16T15:12:49.784Z,18.70
2019-05-16T15:15:24.272Z,18.60
2019-05-16T15:17:53.190Z,18.60
2019-05-16T15:20:23.238Z,18.70
2019-05-16T15:22:52.160Z,18.60
2019-05-16T15:25:21.436Z,18.70
2019-05-16T15:27:50.916Z,18.80
2019-05-16T15:30:22.655Z,18.50
2019-05-16T15:32:52.112Z,18.60
2019-05-16T15:35:21.473Z,18.40
2019-05-16T15:37:51.115Z,18.40
2019-05-16T15:40:20.486Z,18.40
2019-05-16T15:42:49.591Z,18.40
2019-05-16T15:45:34.591Z,18.40
2019-05-16T15:47:51.586Z,18.40
2019-05-16T15:50:21.123Z,18.30
2019-05-16T15:52:50.564Z,18.30
2019-05-16T15:55:19.958Z,18.30
2019-05-16T15:57:48.967Z,18.10
2019-05-16T16:00:23.409Z,18.10
2019-05-16T16:02:52.369Z,18.00
2019-05-16T16:05:21.539Z,17.90
2019-05-16T16:07:50.318Z,17.80
2019-05-16T16:10:22.527Z,17.80
2019-05-16T16:12:51.366Z,17.80
2019-05-16T16:15:21.293Z,17.70
2019-05-16T16:17:50.122Z,17.70
2019-05-16T16:20:19.036Z,17.70
2019-05-16T16:22:47.863Z,17.70
2019-05-16T16:25:17.648Z,17.70
2019-05-16T16:27:47.138Z,17.90
2019-05-16T16:30:18.664Z,17.80
2019-05-16T16:32:46.908Z,17.80
2019-05-16T16:35:17.307Z,17.70
2019-05-16T16:37:47.001Z,17.80
2019-05-16T16:40:17.569Z,17.70
2019-05-16T16:42:47.576Z,17.60
2019-05-16T16:45:17.205Z,17.60
2019-05-16T16:47:46.888Z,17.50
2019-05-16T16:50:17.250Z,17.50
2019-05-16T16:52:47.405Z,17.40
2019-05-16T16:55:17.196Z,17.20
2019-05-16T16:57:47.201Z,17.10
2019-05-16T17:00:17.785Z,17.10
2019-05-16T17:03:02.089Z,17.10
2019-05-16T17:05:17.750Z,17.00
2019-05-16T17:07:48.718Z,17.00
2019-05-16T17:10:20.650Z,17.00
2019-05-16T17:12:49.801Z,16.90
2019-05-16T17:15:18.937Z,17.00
2019-05-16T17:17:50.282Z,17.10
2019-05-16T17:20:19.313Z,17.00
2019-05-16T17:22:50.902Z,17.00
2019-05-16T17:25:20.278Z,17.10
2019-05-16T17:27:49.241Z,17.10
2019-05-16T17:30:20.388Z,17.00
2019-05-16T17:32:49.323Z,17.00
2019-05-16T17:35:20.762Z,17.00
2019-05-16T17:37:49.792Z,17.00
2019-05-16T17:40:19.551Z,17.00
2019-05-16T17:42:48.587Z,17.00
2019-05-16T17:45:18.325Z,16.90
2019-05-16T17:47:47.615Z,16.90
2019-05-16T17:50:18.261Z,16.90
2019-05-16T17:52:47.839Z,16.90
2019-05-16T17:55:18.635Z,16.90
2019-05-16T17:57:47.625Z,16.80
2019-05-16T18:00:25.188Z,16.80
2019-05-16T18:02:48.005Z,16.90
2019-05-16T18:05:17.379Z,16.80
2019-05-16T18:07:47.390Z,16.70
2019-05-16T18:10:18.072Z,16.60
2019-05-16T18:12:48.076Z,16.70
2019-05-16T18:15:22.278Z,16.70
2019-05-16T18:17:51.179Z,16.70
2019-05-16T18:20:22.374Z,16.70
2019-05-16T18:22:51.842Z,16.70
2019-05-16T18:25:20.898Z,16.60
2019-05-16T18:27:50.052Z,16.60
2019-05-16T18:30:23.591Z,16.50
2019-05-16T18:32:53.257Z,16.50
2019-05-16T18:35:22.180Z,16.50
2019-05-16T18:37:51.317Z,16.50
2019-05-16T18:40:20.832Z,16.50
2019-05-16T18:42:49.823Z,16.40
2019-05-16T18:45:18.848Z,16.30
2019-05-16T18:47:47.844Z,16.20
2019-05-16T18:50:18.056Z,16.00
2019-05-16T18:52:47.423Z,15.90
2019-05-16T18:55:17.038Z,15.90
2019-05-16T18:57:47.252Z,15.90
2019-05-16T19:00:18.091Z,15.90
2019-05-16T19:02:48.002Z,15.90
2019-05-16T19:05:17.583Z,15.90
2019-05-16T19:07:47.605Z,15.90
2019-05-16T19:10:17.798Z,15.80
2019-05-16T19:12:47.697Z,15.70
2019-05-16T19:15:17.796Z,15.60
2019-05-16T19:17:47.269Z,15.50
2019-05-16T19:20:17.305Z,15.50
2019-05-16T19:22:46.784Z,15.50
2019-05-16T19:25:19.686Z,15.50
2019-05-16T19:27:48.759Z,15.50
2019-05-16T19:30:18.456Z,15.60
2019-05-16T19:32:47.570Z,15.60
2019-05-16T19:35:16.975Z,15.50
2019-05-16T19:37:47.040Z,15.50
2019-05-16T19:40:17.214Z,15.40
2019-05-16T19:42:47.257Z,15.40
2019-05-16T19:45:17.803Z,15.40
2019-05-16T19:47:47.134Z,15.40
2019-05-16T19:50:17.313Z,15.40
2019-05-16T19:52:47.199Z,15.40
2019-05-16T19:55:17.047Z,15.30
2019-05-16T19:57:46.690Z,15.30
2019-05-16T20:00:17.318Z,15.30
2019-05-16T20:02:47.319Z,15.20
2019-05-16T20:05:17.023Z,15.00
2019-05-16T20:07:46.123Z,15.10
2019-05-16T20:10:16.866Z,15.00
2019-05-16T20:12:46.334Z,15.10
2019-05-16T20:15:16.594Z,15.00
2019-05-16T20:17:58.248Z,15.00
2019-05-16T20:20:18.589Z,14.90
2019-05-16T20:22:48.120Z,14.80
2019-05-16T20:25:17.132Z,14.70
2019-05-16T20:27:46.931Z,14.50
2019-05-16T20:30:17.250Z,14.30
2019-05-16T20:32:46.693Z,14.00
2019-05-16T20:35:17.443Z,13.90
2019-05-16T20:37:47.426Z,13.80
2019-05-16T20:40:17.358Z,14.20
2019-05-16T20:42:47.594Z,13.60
2019-05-16T20:45:16.981Z,13.60
2019-05-16T20:47:46.287Z,13.50
2019-05-16T20:50:16.959Z,13.40
2019-05-16T20:52:46.596Z,13.40
2019-05-16T20:55:17.666Z,13.40
2019-05-16T20:57:48.503Z,13.30
2019-05-16T21:00:19.194Z,13.30
2019-05-16T21:02:49.529Z,13.40
2019-05-16T21:05:20.628Z,13.50
2019-05-16T21:07:50.396Z,13.50
2019-05-16T21:10:20.395Z,13.60
2019-05-16T21:12:49.561Z,13.50
2019-05-16T21:15:19.474Z,13.60
2019-05-16T21:17:48.319Z,13.60
2019-05-16T21:20:17.696Z,13.70
2019-05-16T21:22:47.161Z,13.70
2019-05-16T21:25:16.904Z,13.60
2019-05-16T21:27:47.023Z,13.70
2019-05-16T21:30:16.414Z,13.60
2019-05-16T21:32:47.175Z,13.70
2019-05-16T21:35:16.342Z,13.60
2019-05-16T21:37:46.794Z,13.60
2019-05-16T21:40:17.036Z,13.60
2019-05-16T21:42:46.250Z,13.70
2019-05-16T21:45:15.326Z,13.70
2019-05-16T21:47:44.301Z,13.80
2019-05-16T21:50:13.695Z,13.80
2019-05-16T21:52:42.734Z,13.90
2019-05-16T21:55:12.145Z,13.80
2019-05-16T21:57:41.241Z,13.90
2019-05-16T22:00:16.771Z,13.90
2019-05-16T22:02:46.676Z,13.90
2019-05-16T22:05:17.179Z,13.90
2019-05-16T22:07:47.396Z,13.80
2019-05-16T22:10:17.140Z,13.90
2019-05-16T22:12:47.703Z,13.80
2019-05-16T22:15:17.212Z,13.80
2019-05-16T22:17:47.140Z,13.80
2019-05-16T22:20:17.011Z,13.80
2019-05-16T22:22:46.958Z,13.80
2019-05-16T22:25:16.841Z,13.80
2019-05-16T22:27:48.427Z,13.80
2019-05-16T22:30:18.417Z,13.70
2019-05-16T22:32:47.484Z,13.70
2019-05-16T22:35:17.721Z,13.60
2019-05-16T22:37:52.380Z,13.50
2019-05-16T22:40:18.093Z,13.50
2019-05-16T22:42:47.342Z,13.50
2019-05-16T22:45:19.394Z,13.50
2019-05-16T22:47:48.468Z,13.50
2019-05-16T22:50:19.731Z,13.50
2019-05-16T22:52:48.734Z,13.50
2019-05-16T22:55:18.057Z,13.50
2019-05-16T22:57:47.485Z,13.40
2019-05-16T23:00:26.540Z,13.40
2019-05-16T23:02:56.639Z,13.40
2019-05-16T23:05:27.460Z,13.40
2019-05-16T23:08:05.027Z,13.40
2019-05-16T23:10:28.087Z,13.40
2019-05-16T23:12:57.392Z,13.30
2019-05-16T23:15:26.704Z,13.20
2019-05-16T23:17:57.316Z,13.20
2019-05-16T23:20:27.768Z,13.10
2019-05-16T23:22:56.873Z,13.10
2019-05-16T23:25:26.048Z,13.10
2019-05-16T23:27:56.662Z,13.10
2019-05-16T23:30:27.243Z,13.10
2019-05-16T23:32:59.735Z,13.10
2019-05-16T23:35:28.707Z,13.10
2019-05-16T23:37:57.684Z,13.10
2019-05-16T23:40:26.723Z,13.00
2019-05-16T23:42:56.938Z,13.10
2019-05-16T23:45:27.468Z,13.10
2019-05-16T23:47:56.647Z,13.10
2019-05-16T23:50:27.536Z,13.00
2019-05-16T23:52:56.397Z,13.00
2019-05-16T23:55:27.766Z,13.00
2019-05-16T23:57:57.085Z,13.00
